< Cyclone 200006 2000 Season Cyclone 200008 >
Cyclone 200007 (NORMAN)
General InformationTrack Information on Google MapsDetailed Wind InformationList of All Images || ResourceGoogle EarthGE AnimationAtom FeedGeoJSON
Detalied Best Track (Time Zone = UTC)
Year Month Day Hour Lat. Long. Pressure (hPa) Wind (kt) Class Image Chart
2000 2 28 22 -17.2 123.0 1000 27 2 Image --
2000 2 29 04 -17.4 122.2 1000 27 2 Image --
2000 2 29 10 -17.7 120.6 995 35 3 Image --
2000 2 29 16 -18.1 119.0 990 41 3 Image --
2000 2 29 22 -18.5 117.8 985 49 4 Image --
2000 3 1 04 -18.5 116.8 980 54 4 Image --
2000 3 1 10 -18.6 115.8 975 60 4 Image --
2000 3 1 16 -18.5 114.9 965 70 5 Image --
2000 3 1 22 -18.6 113.8 960 76 5 Image --
2000 3 2 04 -18.8 112.8 955 80 5 Image --
2000 3 2 10 -19.1 111.5 950 84 5 Image --
2000 3 2 16 -19.4 109.9 940 93 5 Image --
2000 3 2 22 -19.6 108.2 930 101 5 Image --
2000 3 3 04 -19.6 106.9 950 84 5 Image --
2000 3 3 10 -19.9 105.0 965 70 5 Image --
2000 3 3 16 -19.9 103.0 965 70 5 Image --
2000 3 3 22 -20.2 101.2 965 70 5 Image --
2000 3 4 04 -20.3 99.3 975 60 4 Image --
2000 3 4 10 -20.3 97.8 980 54 4 Image --
2000 3 4 16 -20.3 96.6 980 54 4 Image --
2000 3 4 22 -20.2 95.4 980 54 4 Image --
2000 3 5 04 -20.3 94.6 980 54 4 Image --
2000 3 5 10 -20.5 93.9 980 54 4 Image --
2000 3 5 16 -20.5 93.3 980 54 4 Image --
2000 3 5 22 -20.6 92.8 980 54 4 Image --
2000 3 6 04 -20.7 92.2 980 54 4 Image --
2000 3 6 10 -21.2 92.0 980 54 4 Image --
2000 3 6 16 -21.7 91.9 980 54 4 Image --
2000 3 6 22 -22.4 91.5 985 49 4 Image --
2000 3 7 04 -23.0 91.6 985 49 4 Image --
2000 3 7 10 -23.6 91.8 985 49 4 Image --
2000 3 7 16 -23.7 92.0 990 41 3 Image --
2000 3 7 22 -23.8 92.2 995 35 3 Image --
2000 3 8 04 -23.9 92.5 995 35 3 Image --
2000 3 8 10 -23.8 92.8 995 35 3 Image --
2000 3 8 16 -23.7 92.6 1000 27 2 Image --
2000 3 8 22 -23.6 92.3 1000 27 2 Image --
2000 3 9 04 -23.6 91.9 1000 27 2 Image --
2000 3 9 10 -23.4 90.5 1000 27 2 Image --
2000 3 9 16 -23.1 89.8 1000 27 2 Image --
2000 3 9 22 -22.9 88.2 1005 19 2 Image --
2000 3 10 04 -22.7 87.8 1005 19 2 Image --
< Cyclone 200006 2000 Season Cyclone 200008 >

Help